createdAt,value
2018-05-15T03:34:39.855Z,52.30
2018-05-15T03:37:27.080Z,52.40
2018-05-15T03:40:04.551Z,52.30
2018-05-15T03:42:44.117Z,52.90
2018-05-15T03:45:20.402Z,53.30
2018-05-15T03:47:55.183Z,55.10
2018-05-15T03:50:28.679Z,55.10
2018-05-15T03:53:00.332Z,54.90
2018-05-15T03:55:33.024Z,55.30
2018-05-15T03:58:07.199Z,55.00
2018-05-15T04:00:54.085Z,54.90
2018-05-15T04:03:43.889Z,54.90
2018-05-15T04:06:28.421Z,54.90
2018-05-15T04:09:03.827Z,55.60
2018-05-15T04:11:36.394Z,55.30
2018-05-15T04:14:08.250Z,55.30
2018-05-15T04:16:41.801Z,55.80
2018-05-15T04:19:14.815Z,56.00
2018-05-15T04:21:50.088Z,55.40
2018-05-15T04:24:25.567Z,55.40
2018-05-15T04:27:07.188Z,56.10
2018-05-15T04:29:39.224Z,56.60
2018-05-15T04:32:16.000Z,56.40
2018-05-15T04:34:51.711Z,57.20
2018-05-15T04:37:24.591Z,57.30
2018-05-15T04:39:58.384Z,57.40
2018-05-15T04:42:35.909Z,57.30
2018-05-15T04:45:30.043Z,57.40
2018-05-15T04:48:01.354Z,57.80
2018-05-15T04:50:36.541Z,57.80
2018-05-15T04:53:11.162Z,58.10
2018-05-15T04:55:47.026Z,58.70
2018-05-15T04:58:20.348Z,59.00
2018-05-15T05:00:54.321Z,59.10
2018-05-15T05:03:26.681Z,58.90
2018-05-15T05:05:59.804Z,59.20
2018-05-15T05:08:32.144Z,59.40
2018-05-15T05:11:05.567Z,59.80
2018-05-15T05:13:41.335Z,60.00
2018-05-15T05:16:14.120Z,60.70
2018-05-15T05:18:48.144Z,60.60
2018-05-15T05:21:20.132Z,60.40
2018-05-15T05:23:58.889Z,59.90
2018-05-15T05:26:34.394Z,60.00
2018-05-15T05:29:09.086Z,59.90
2018-05-15T05:31:42.689Z,60.40
2018-05-15T05:34:15.234Z,61.10
2018-05-15T05:36:48.421Z,60.90
2018-05-15T05:39:26.080Z,61.50
2018-05-15T05:42:05.355Z,61.70
2018-05-15T05:44:39.920Z,61.60
2018-05-15T05:47:12.953Z,61.00
2018-05-15T05:49:52.838Z,61.50
2018-05-15T05:55:52.178Z,62.00
2018-05-15T05:58:28.175Z,62.10
2018-05-15T06:01:04.454Z,62.10
2018-05-15T06:03:48.806Z,62.50
2018-05-15T06:06:22.197Z,62.70
2018-05-15T06:08:57.439Z,62.70
2018-05-15T06:11:31.446Z,62.90
2018-05-15T06:14:11.200Z,63.00
2018-05-15T06:16:44.369Z,63.60
2018-05-15T06:19:19.390Z,63.60
2018-05-15T06:21:53.724Z,64.40
2018-05-15T06:24:26.861Z,64.10
2018-05-15T06:27:01.334Z,64.20
2018-05-15T06:29:32.930Z,65.20
2018-05-15T06:32:07.110Z,64.10
2018-05-15T06:34:40.403Z,65.20
2018-05-15T06:37:22.289Z,65.20
2018-05-15T06:40:00.507Z,65.50
2018-05-15T06:42:35.330Z,65.70
2018-05-15T06:45:11.183Z,65.60
2018-05-15T06:50:24.915Z,66.10
2018-05-15T06:52:58.836Z,66.10
2018-05-15T06:55:34.104Z,67.20
2018-05-15T06:58:10.906Z,68.30
2018-05-15T07:00:44.717Z,68.30
2018-05-15T07:03:40.806Z,68.90
2018-05-15T07:06:16.353Z,68.90
2018-05-15T07:08:51.043Z,68.70
2018-05-15T07:11:23.445Z,69.50
2018-05-15T07:14:04.272Z,68.80
2018-05-15T07:16:40.763Z,69.00
2018-05-15T07:19:14.271Z,69.70
2018-05-15T07:21:50.640Z,70.30
2018-05-15T07:24:30.451Z,71.10
2018-05-15T07:27:06.295Z,70.30
2018-05-15T07:29:41.228Z,70.30
2018-05-15T07:32:15.672Z,70.90
2018-05-15T07:37:30.144Z,72.20
2018-05-15T07:40:07.891Z,71.70
2018-05-15T07:42:49.299Z,71.70
2018-05-15T07:45:22.475Z,72.20
2018-05-15T07:47:55.233Z,72.60
2018-05-15T07:50:32.276Z,73.20
2018-05-15T07:55:47.720Z,73.90
2018-05-15T07:58:20.478Z,73.90
2018-05-15T08:00:53.743Z,74.40
2018-05-15T08:03:33.077Z,75.10
2018-05-15T08:06:10.875Z,75.00
2018-05-15T08:11:19.338Z,76.20
2018-05-15T08:16:45.702Z,76.50
2018-05-15T08:19:20.534Z,76.00
2018-05-15T08:21:51.526Z,76.10
2018-05-15T08:24:22.238Z,77.10
2018-05-15T08:29:56.848Z,76.90
2018-05-15T08:32:34.681Z,78.60
2018-05-15T08:35:11.889Z,77.70
2018-05-15T08:37:47.536Z,78.00
2018-05-15T08:40:21.935Z,79.20
2018-05-15T08:42:58.313Z,79.30
2018-05-15T08:45:34.080Z,79.00
2018-05-15T08:48:11.915Z,78.90
2018-05-15T08:50:44.452Z,78.90
2018-05-15T08:53:18.735Z,79.40
2018-05-15T08:55:52.978Z,79.30
2018-05-15T08:58:34.993Z,79.90
2018-05-15T09:01:14.289Z,80.00
2018-05-15T09:08:04.748Z,80.70
2018-05-15T09:10:34.812Z,80.70
2018-05-15T09:13:05.223Z,81.10
2018-05-15T09:15:35.456Z,81.30
2018-05-15T09:18:05.476Z,81.40
2018-05-15T09:20:36.611Z,81.60
2018-05-15T09:23:06.895Z,81.60
2018-05-15T09:25:37.415Z,81.90
2018-05-15T09:28:07.987Z,81.80
2018-05-15T09:30:38.323Z,81.80
2018-05-15T09:33:08.424Z,81.50
2018-05-15T09:35:38.715Z,81.20
2018-05-15T09:38:09.296Z,81.70
2018-05-15T09:40:39.753Z,81.40
2018-05-15T09:43:10.763Z,81.80
2018-05-15T09:45:41.538Z,81.90
2018-05-15T09:48:12.615Z,82.90
2018-05-15T09:50:42.751Z,82.90
2018-05-15T09:53:13.360Z,83.30
2018-05-15T09:55:43.770Z,82.60
2018-05-15T09:58:14.841Z,83.00
2018-05-15T10:00:45.275Z,83.00
2018-05-15T10:03:15.632Z,83.30
2018-05-15T10:05:46.757Z,84.10
2018-05-15T10:08:16.960Z,84.20
2018-05-15T10:10:47.158Z,84.30
2018-05-15T10:13:17.217Z,84.10
2018-05-15T10:15:47.283Z,84.00
2018-05-15T10:18:18.576Z,84.20
2018-05-15T10:20:49.482Z,84.20
2018-05-15T10:23:19.930Z,84.10
2018-05-15T10:25:50.346Z,84.00
2018-05-15T10:28:20.590Z,84.40
2018-05-15T10:30:51.112Z,84.80
2018-05-15T10:33:21.124Z,84.90
2018-05-15T10:35:51.161Z,85.10
2018-05-15T10:38:21.142Z,85.40
2018-05-15T10:40:51.392Z,85.50
2018-05-15T10:43:21.454Z,86.20
2018-05-15T10:45:52.524Z,86.90
2018-05-15T10:48:22.796Z,86.80
2018-05-15T10:50:53.408Z,87.00
2018-05-15T10:53:23.758Z,86.90
2018-05-15T10:55:54.038Z,87.40
2018-05-15T10:58:24.170Z,87.30
2018-05-15T11:00:54.499Z,88.00
2018-05-15T11:03:24.558Z,88.00
2018-05-15T11:05:54.646Z,88.80
2018-05-15T11:08:24.856Z,88.90
2018-05-15T11:10:54.904Z,89.00
2018-05-15T11:13:25.304Z,89.50
2018-05-15T11:15:55.611Z,89.80
2018-05-15T11:18:45.636Z,90.10
2018-05-15T11:21:27.044Z,90.20
2018-05-15T11:24:20.891Z,90.20
2018-05-15T11:26:51.079Z,90.70
2018-05-15T11:29:21.421Z,90.60
2018-05-15T11:31:51.643Z,90.80
2018-05-15T11:34:21.892Z,91.10
2018-05-15T11:36:51.895Z,91.10
2018-05-15T11:39:21.961Z,91.40
2018-05-15T11:41:52.922Z,91.50
2018-05-15T11:44:23.344Z,91.50
2018-05-15T11:46:53.680Z,91.70
2018-05-15T11:49:24.943Z,91.90
2018-05-15T11:51:55.182Z,92.00
2018-05-15T11:54:25.178Z,92.30
2018-05-15T11:56:55.353Z,92.30
2018-05-15T11:59:26.370Z,92.50
2018-05-15T12:01:56.761Z,92.50
2018-05-15T12:04:26.984Z,92.80
2018-05-15T12:06:57.111Z,92.80
2018-05-15T12:09:27.148Z,93.10
2018-05-15T12:11:57.438Z,93.10
2018-05-15T12:14:27.745Z,93.50
2018-05-15T12:16:58.079Z,93.70
2018-05-15T12:19:28.424Z,93.70
2018-05-15T12:21:58.558Z,93.90
2018-05-15T12:24:28.944Z,94.00
2018-05-15T12:26:59.401Z,94.30
2018-05-15T12:29:29.831Z,94.50
2018-05-15T12:32:00.390Z,94.60
2018-05-15T12:34:30.676Z,94.50
2018-05-15T12:37:01.105Z,94.70
2018-05-15T12:39:31.244Z,94.80
2018-05-15T12:42:01.756Z,95.00
2018-05-15T12:44:31.976Z,95.00
2018-05-15T12:47:02.513Z,94.60
2018-05-15T12:49:32.570Z,94.60
2018-05-15T12:52:03.114Z,94.60
2018-05-15T12:54:33.642Z,94.50
2018-05-15T12:57:04.936Z,94.60
2018-05-15T12:59:35.652Z,94.60
2018-05-15T13:02:06.080Z,94.70
2018-05-15T13:04:36.252Z,94.70
2018-05-15T13:07:07.492Z,94.60
2018-05-15T13:09:37.892Z,94.60
2018-05-15T13:12:08.212Z,93.90
2018-05-15T13:14:38.406Z,94.40
2018-05-15T13:17:08.575Z,94.30
2018-05-15T13:19:39.095Z,94.40
2018-05-15T13:22:09.319Z,94.40
2018-05-15T13:24:39.660Z,94.30
2018-05-15T13:27:09.896Z,94.00
2018-05-15T13:29:40.089Z,93.40
2018-05-15T13:32:10.803Z,93.50
2018-05-15T13:34:41.034Z,93.40
2018-05-15T13:37:11.320Z,94.20
2018-05-15T13:39:41.613Z,94.60
2018-05-15T13:42:11.932Z,94.60
2018-05-15T13:44:43.067Z,94.80
2018-05-15T13:47:13.321Z,94.80
2018-05-15T13:49:44.842Z,94.40
2018-05-15T13:52:15.451Z,94.40
2018-05-15T13:54:46.292Z,94.30
2018-05-15T13:57:23.784Z,94.70
2018-05-15T13:59:55.142Z,94.30
2018-05-15T14:02:25.438Z,94.30
2018-05-15T14:04:55.792Z,94.50
2018-05-15T14:07:26.241Z,94.50
2018-05-15T14:09:56.734Z,94.30
2018-05-15T14:12:27.204Z,94.30
2018-05-15T14:14:57.482Z,94.00
2018-05-15T14:17:27.777Z,94.00
2018-05-15T14:19:58.880Z,94.20
2018-05-15T14:22:29.222Z,94.20
2018-05-15T14:25:00.377Z,93.90
2018-05-15T14:27:31.285Z,93.70
2018-05-15T14:30:01.719Z,93.60
2018-05-15T14:32:31.720Z,93.80
2018-05-15T14:35:01.979Z,94.40
2018-05-15T14:37:32.920Z,94.40
2018-05-15T14:40:04.131Z,94.40
2018-05-15T14:42:45.707Z,94.40
2018-05-15T14:45:18.944Z,94.20
2018-05-15T14:47:50.070Z,94.00
2018-05-15T14:50:21.186Z,94.10
2018-05-15T14:52:51.634Z,94.10
2018-05-15T14:55:21.937Z,94.00
2018-05-15T14:57:51.970Z,93.70
2018-05-15T15:00:22.313Z,93.60
2018-05-15T15:02:52.428Z,93.80
2018-05-15T15:05:22.631Z,93.30
2018-05-15T15:07:52.928Z,93.80
2018-05-15T15:10:23.066Z,94.00
2018-05-15T15:12:53.208Z,94.30
2018-05-15T15:15:23.439Z,94.10
2018-05-15T15:17:53.745Z,94.10
2018-05-15T15:20:24.094Z,94.00
2018-05-15T15:22:55.084Z,93.70
2018-05-15T15:25:24.978Z,93.40
2018-05-15T15:27:54.809Z,93.40
2018-05-15T15:30:24.535Z,93.70
2018-05-15T15:32:54.319Z,94.00
2018-05-15T15:38:00.607Z,93.50
2018-05-15T15:40:30.947Z,93.50
2018-05-15T15:43:01.504Z,93.50
2018-05-15T15:45:31.523Z,93.40
2018-05-15T15:48:02.779Z,94.00
2018-05-15T15:50:32.575Z,94.30
2018-05-15T15:53:02.392Z,94.50
2018-05-15T15:55:32.321Z,94.40
2018-05-15T15:58:02.645Z,93.50
2018-05-15T16:00:32.903Z,93.30
2018-05-15T16:03:03.704Z,93.20
2018-05-15T16:05:34.036Z,93.10
2018-05-15T16:08:04.440Z,92.20
2018-05-15T16:10:34.572Z,92.10
2018-05-15T16:13:04.640Z,92.70
2018-05-15T16:15:35.025Z,92.40
2018-05-15T16:18:05.238Z,91.90
2018-05-15T16:20:35.548Z,91.80
2018-05-15T16:23:06.165Z,91.50
2018-05-15T16:25:36.474Z,92.20
2018-05-15T16:28:06.971Z,92.30
2018-05-15T16:30:36.811Z,92.60
2018-05-15T16:33:06.572Z,92.50
2018-05-15T16:35:36.437Z,92.10
2018-05-15T16:38:07.009Z,92.20
2018-05-15T16:40:37.191Z,92.20
2018-05-15T16:43:08.039Z,91.60
2018-05-15T16:45:39.400Z,91.50
2018-05-15T16:48:09.660Z,91.10
2018-05-15T16:50:40.694Z,90.30
2018-05-15T16:53:11.005Z,90.30
2018-05-15T16:55:41.055Z,90.60
2018-05-15T16:58:11.865Z,90.10
2018-05-15T17:00:42.307Z,90.00
2018-05-15T17:03:12.611Z,90.20
2018-05-15T17:05:42.563Z,90.90
2018-05-15T17:08:13.679Z,91.10
2018-05-15T17:10:44.100Z,91.10
2018-05-15T17:13:14.084Z,91.00
2018-05-15T17:15:44.259Z,90.80
2018-05-15T17:18:14.461Z,89.40
2018-05-15T17:20:44.706Z,89.70
2018-05-15T17:23:14.854Z,88.80
2018-05-15T17:25:45.174Z,87.10
2018-05-15T17:28:15.549Z,87.10
2018-05-15T17:30:45.724Z,84.50
2018-05-15T17:33:16.604Z,87.60
2018-05-15T17:35:47.304Z,87.60
2018-05-15T17:38:17.521Z,85.10
2018-05-15T17:40:49.012Z,84.30
2018-05-15T17:43:19.258Z,84.30
2018-05-15T17:45:49.545Z,84.70
2018-05-15T17:48:19.798Z,86.10
2018-05-15T17:50:50.215Z,86.00
2018-05-15T17:53:20.440Z,87.30
2018-05-15T17:55:51.065Z,89.20
2018-05-15T17:58:21.181Z,88.20
2018-05-15T18:00:51.181Z,86.50
2018-05-15T18:03:21.173Z,84.60
2018-05-15T18:05:52.065Z,86.50
2018-05-15T18:08:22.231Z,85.70
2018-05-15T18:10:52.595Z,85.10
2018-05-15T18:13:22.717Z,85.40
2018-05-15T18:15:53.727Z,85.10
2018-05-15T18:18:23.924Z,87.90
2018-05-15T18:20:54.298Z,88.90
2018-05-15T18:23:24.699Z,86.30
2018-05-15T18:25:55.373Z,84.80
2018-05-15T18:28:25.510Z,87.10
2018-05-15T18:30:55.688Z,86.20
2018-05-15T18:33:25.834Z,84.70
2018-05-15T18:35:56.658Z,85.90
2018-05-15T18:38:26.882Z,85.80
2018-05-15T18:40:57.103Z,87.30
2018-05-15T18:43:27.537Z,87.90
2018-05-15T18:45:57.800Z,86.80
2018-05-15T18:48:28.916Z,87.40
2018-05-15T18:50:59.192Z,87.00
2018-05-15T18:53:30.490Z,85.20
2018-05-15T18:56:00.609Z,85.20
2018-05-15T18:58:31.139Z,83.80
2018-05-15T19:01:01.345Z,81.70
2018-05-15T19:03:31.680Z,82.40
2018-05-15T19:06:02.018Z,81.00
2018-05-15T19:08:32.246Z,80.20
2018-05-15T19:11:02.746Z,78.50
2018-05-15T19:13:33.210Z,76.50
2018-05-15T19:16:03.311Z,77.10
2018-05-15T19:18:33.547Z,75.30
2018-05-15T19:21:03.945Z,76.40
2018-05-15T19:23:34.235Z,77.20
2018-05-15T19:26:04.378Z,76.10
2018-05-15T19:28:34.749Z,76.20
2018-05-15T19:31:05.025Z,77.90
2018-05-15T19:33:40.913Z,77.90
2018-05-15T19:36:12.263Z,76.90
2018-05-15T19:38:42.577Z,74.90
2018-05-15T19:41:27.368Z,73.50
2018-05-15T19:43:57.448Z,73.10
2018-05-15T19:46:27.800Z,74.80
2018-05-15T19:48:58.123Z,76.90
2018-05-15T19:51:28.245Z,74.70
2018-05-15T19:53:58.449Z,78.00
2018-05-15T19:56:28.472Z,77.80
2018-05-15T19:58:58.856Z,75.30
2018-05-15T20:01:29.091Z,76.20
2018-05-15T20:03:59.242Z,75.50
2018-05-15T20:06:29.360Z,77.60
2018-05-15T20:08:59.493Z,77.50
2018-05-15T20:11:29.489Z,75.60
2018-05-15T20:14:00.167Z,75.70
2018-05-15T20:16:31.061Z,76.50
2018-05-15T20:19:01.269Z,76.60
2018-05-15T20:21:31.577Z,75.40
2018-05-15T20:24:01.940Z,76.10
2018-05-15T20:26:32.258Z,77.20
2018-05-15T20:29:02.289Z,73.90
2018-05-15T20:31:32.410Z,76.50
2018-05-15T20:34:02.571Z,76.30
2018-05-15T20:36:33.675Z,75.60
2018-05-15T20:39:04.640Z,75.90
2018-05-15T20:41:35.662Z,72.30
2018-05-15T20:44:05.542Z,72.30
2018-05-15T20:46:35.573Z,72.80
2018-05-15T20:49:05.867Z,72.40
2018-05-15T20:51:36.736Z,71.20
2018-05-15T20:54:06.631Z,72.20
2018-05-15T20:56:36.491Z,71.60
2018-05-15T20:59:07.597Z,71.80
2018-05-15T21:01:37.736Z,71.80
2018-05-15T21:04:07.943Z,71.10
2018-05-15T21:06:38.288Z,70.40
2018-05-15T21:09:08.437Z,70.80
2018-05-15T21:11:42.951Z,70.50
2018-05-15T21:14:13.191Z,70.40
2018-05-15T21:16:44.471Z,70.40
2018-05-15T21:19:14.867Z,70.30
2018-05-15T21:21:46.884Z,69.20
2018-05-15T21:24:17.209Z,69.10
2018-05-15T21:26:47.802Z,69.80
2018-05-15T21:29:18.099Z,71.50
2018-05-15T21:31:49.187Z,68.80
2018-05-15T21:34:19.337Z,68.70
2018-05-15T21:36:52.787Z,66.60
2018-05-15T21:39:23.258Z,67.60
2018-05-15T21:41:53.774Z,68.70
2018-05-15T21:44:24.808Z,67.70
2018-05-15T21:46:55.111Z,67.80
2018-05-15T21:49:25.474Z,67.00
2018-05-15T21:51:55.691Z,68.70
2018-05-15T21:54:26.204Z,66.20
2018-05-15T21:56:56.330Z,65.90
2018-05-15T21:59:26.435Z,65.40
2018-05-15T22:01:56.664Z,67.00
2018-05-15T22:04:26.996Z,66.80
2018-05-15T22:06:57.630Z,65.20
2018-05-15T22:09:27.549Z,64.10
2018-05-15T22:12:08.391Z,65.90
2018-05-15T22:14:49.335Z,64.90
2018-05-15T22:17:30.696Z,63.70
2018-05-15T22:20:12.002Z,64.20
2018-05-15T22:22:41.354Z,63.90
2018-05-15T22:25:11.980Z,64.40
2018-05-15T22:27:42.670Z,63.70
2018-05-15T22:30:14.230Z,64.30
2018-05-15T22:32:45.752Z,62.70
2018-05-15T22:35:15.640Z,62.70
2018-05-15T22:37:45.407Z,64.40
2018-05-15T22:40:15.967Z,65.40
2018-05-15T22:42:45.741Z,65.30
2018-05-15T22:45:15.488Z,62.70
2018-05-15T22:47:45.341Z,60.70
2018-05-15T22:50:15.367Z,60.20
2018-05-15T22:52:45.217Z,62.60
2018-05-15T22:55:15.760Z,60.20
2018-05-15T22:57:45.838Z,60.10
2018-05-15T23:00:15.626Z,60.20
2018-05-15T23:02:45.377Z,58.20
2018-05-15T23:05:15.172Z,59.00
2018-05-15T23:07:44.948Z,59.30
2018-05-15T23:10:14.779Z,59.40
2018-05-15T23:12:44.752Z,59.50
2018-05-15T23:15:14.639Z,57.70
2018-05-15T23:17:44.697Z,57.80
2018-05-15T23:20:14.477Z,58.90
2018-05-15T23:22:45.371Z,59.80
2018-05-15T23:25:15.795Z,59.70
2018-05-15T23:27:46.256Z,60.20
2018-05-15T23:30:16.582Z,58.20
2018-05-15T23:32:47.469Z,57.40
2018-05-15T23:35:18.779Z,57.40
2018-05-15T23:37:49.772Z,57.10
2018-05-15T23:40:20.098Z,57.10
2018-05-15T23:42:52.177Z,57.20
2018-05-15T23:45:22.382Z,58.40
2018-05-15T23:47:54.353Z,58.20
2018-05-15T23:50:24.589Z,57.60
2018-05-15T23:52:55.320Z,58.40
2018-05-15T23:55:25.645Z,57.80
2018-05-15T23:57:55.793Z,58.60
